createdAt,value
2017-11-03T00:02:26.808Z,10.57
2017-11-03T00:04:54.251Z,7.53
2017-11-03T00:07:21.679Z,13.23
2017-11-03T00:09:49.908Z,6.90
2017-11-03T00:12:17.677Z,13.50
2017-11-03T00:14:45.102Z,13.27
2017-11-03T00:17:12.917Z,8.23
2017-11-03T00:19:41.173Z,10.40
2017-11-03T00:22:08.625Z,9.50
2017-11-03T00:24:38.725Z,7.83
2017-11-03T00:27:06.211Z,10.90
2017-11-03T00:29:34.017Z,9.30
2017-11-03T00:32:02.235Z,12.70
2017-11-03T00:34:30.649Z,10.00
2017-11-03T00:36:58.485Z,13.90
2017-11-03T00:39:25.957Z,8.40
2017-11-03T00:41:53.395Z,9.30
2017-11-03T00:44:21.202Z,8.37
2017-11-03T00:46:48.624Z,13.57
2017-11-03T00:49:16.488Z,8.10
2017-11-03T00:51:44.677Z,6.83
2017-11-03T00:54:12.866Z,10.27
2017-11-03T00:56:41.313Z,5.77
2017-11-03T00:59:09.124Z,6.53
2017-11-03T01:01:37.318Z,10.57
2017-11-03T01:04:05.529Z,7.87
2017-11-03T01:06:33.814Z,11.20
2017-11-03T01:09:02.013Z,5.33
2017-11-03T01:11:31.281Z,11.00
2017-11-03T01:13:58.701Z,6.73
2017-11-03T01:16:26.585Z,10.40
2017-11-03T01:18:54.895Z,13.77
2017-11-03T01:21:23.082Z,5.73
2017-11-03T01:23:51.339Z,9.27
2017-11-03T01:26:19.469Z,13.73
2017-11-03T01:28:47.317Z,11.00
2017-11-03T01:31:16.245Z,9.37
2017-11-03T01:33:44.137Z,5.30
2017-11-03T01:36:11.953Z,4.83
2017-11-03T01:38:40.177Z,10.50
2017-11-03T01:41:08.661Z,7.77
2017-11-03T01:43:36.934Z,7.37
2017-11-03T01:46:04.817Z,8.53
2017-11-03T01:48:32.261Z,11.63
2017-11-03T01:50:59.716Z,10.30
2017-11-03T01:53:27.164Z,10.50
2017-11-03T01:55:54.933Z,10.83
2017-11-03T01:58:23.506Z,11.10
2017-11-03T02:00:50.925Z,13.53
2017-11-03T02:03:19.457Z,10.87
2017-11-03T02:05:48.017Z,8.80
2017-11-03T02:08:15.500Z,9.43
2017-11-03T02:10:43.700Z,10.37
2017-11-03T02:13:11.129Z,13.20
2017-11-03T02:15:38.588Z,9.53
2017-11-03T02:18:06.265Z,9.43
2017-11-03T02:20:33.681Z,13.47
2017-11-03T02:23:01.501Z,14.43
2017-11-03T02:25:29.029Z,12.37
2017-11-03T02:27:56.453Z,9.13
2017-11-03T02:30:24.672Z,10.07
2017-11-03T02:32:52.864Z,10.53
2017-11-03T02:35:20.289Z,14.27
2017-11-03T02:37:47.716Z,16.17
2017-11-03T02:40:15.934Z,11.87
2017-11-03T02:42:43.351Z,9.53
2017-11-03T02:45:12.284Z,9.13
2017-11-03T02:47:40.060Z,12.50
2017-11-03T02:50:07.505Z,13.77
2017-11-03T02:52:34.921Z,9.20
2017-11-03T02:55:03.137Z,13.27
2017-11-03T02:57:30.568Z,12.23
2017-11-03T02:59:58.380Z,11.50
2017-11-03T03:02:25.820Z,13.43
2017-11-03T03:04:53.236Z,9.33
2017-11-03T03:07:20.729Z,12.67
2017-11-03T03:09:48.493Z,11.50
2017-11-03T03:12:17.057Z,13.40
2017-11-03T03:14:44.896Z,11.07
2017-11-03T03:17:13.012Z,10.50
2017-11-03T03:19:41.293Z,8.33
2017-11-03T03:22:09.856Z,10.70
2017-11-03T03:24:37.324Z,14.70
2017-11-03T03:27:04.748Z,22.17
2017-11-03T03:29:32.949Z,8.70
2017-11-03T03:32:00.725Z,11.83
2017-11-03T03:34:28.180Z,11.93
2017-11-03T03:36:56.745Z,12.00
2017-11-03T03:39:24.224Z,9.00
2017-11-03T03:41:51.653Z,15.10
2017-11-03T03:44:19.088Z,10.17
2017-11-03T03:46:48.341Z,12.43
2017-11-03T03:49:16.165Z,10.67
2017-11-03T03:51:44.739Z,12.27
2017-11-03T03:54:13.268Z,12.00
2017-11-03T03:56:41.831Z,15.47
2017-11-03T03:59:09.313Z,13.10
2017-11-03T04:01:37.201Z,12.83
2017-11-03T04:04:04.614Z,17.07
2017-11-03T04:06:32.034Z,10.97
2017-11-03T04:08:59.752Z,27.00
2017-11-03T04:11:27.209Z,11.83
2017-11-03T04:13:55.485Z,10.60
2017-11-03T04:16:24.057Z,16.03
2017-11-03T04:18:52.352Z,16.90
2017-11-03T04:21:19.805Z,14.57
2017-11-03T04:23:47.568Z,18.60
2017-11-03T04:26:14.998Z,22.77
2017-11-03T04:28:42.486Z,13.87
2017-11-03T04:31:10.248Z,18.03
2017-11-03T04:33:38.112Z,12.30
2017-11-03T04:36:05.981Z,13.47
2017-11-03T04:38:33.749Z,12.57
2017-11-03T04:41:01.189Z,16.20
2017-11-03T04:43:28.609Z,17.40
2017-11-03T04:45:57.689Z,11.83
2017-11-03T04:48:25.120Z,14.47
2017-11-03T04:50:52.569Z,19.43
2017-11-03T04:53:20.741Z,14.23
2017-11-03T04:55:49.325Z,14.80
2017-11-03T04:58:16.797Z,17.20
2017-11-03T05:00:44.228Z,13.50
2017-11-03T05:03:11.653Z,23.77
2017-11-03T05:05:39.845Z,16.60
2017-11-03T05:08:07.538Z,15.13
2017-11-03T05:10:34.960Z,18.90
2017-11-03T05:13:02.861Z,13.73
2017-11-03T05:15:30.314Z,12.83
2017-11-03T05:17:57.769Z,16.60
2017-11-03T05:20:25.200Z,14.83
2017-11-03T05:22:53.709Z,18.63
2017-11-03T05:25:21.141Z,19.20
2017-11-03T05:27:48.965Z,15.23
2017-11-03T05:30:16.409Z,16.47
2017-11-03T05:32:43.837Z,14.00
2017-11-03T05:35:11.268Z,19.07
2017-11-03T05:37:39.780Z,15.40
2017-11-03T05:40:08.588Z,15.40
2017-11-03T05:42:36.022Z,16.10
2017-11-03T05:45:03.479Z,15.93
2017-11-03T05:47:31.661Z,18.80
2017-11-03T05:50:00.037Z,21.57
2017-11-03T05:52:28.113Z,20.83
2017-11-03T05:54:56.389Z,17.77
2017-11-03T05:57:24.669Z,17.80
2017-11-03T05:59:52.732Z,23.27
2017-11-03T06:02:20.935Z,17.03
2017-11-03T06:04:49.206Z,20.13
2017-11-03T06:07:17.701Z,15.90
2017-11-03T06:09:45.521Z,15.67
2017-11-03T06:12:13.713Z,15.17
2017-11-03T06:14:41.917Z,19.10
2017-11-03T06:17:10.165Z,24.23
2017-11-03T06:19:38.353Z,18.67
2017-11-03T06:22:06.561Z,24.20
2017-11-03T06:24:34.761Z,21.23
2017-11-03T06:27:02.952Z,15.57
2017-11-03T06:29:31.363Z,17.13
2017-11-03T06:31:59.205Z,14.43
2017-11-03T06:34:26.661Z,18.70
2017-11-03T06:36:54.118Z,30.60
2017-11-03T06:39:21.553Z,29.37
2017-11-03T06:41:48.989Z,33.87
2017-11-03T06:44:17.205Z,35.93
2017-11-03T06:46:45.481Z,39.63
2017-11-03T06:49:14.074Z,32.13
2017-11-03T06:51:42.242Z,39.87
2017-11-03T06:54:10.086Z,37.57
2017-11-03T06:56:38.263Z,34.93
2017-11-03T06:59:06.469Z,37.07
2017-11-03T07:01:34.737Z,34.03
2017-11-03T07:04:02.937Z,34.83
2017-11-03T07:06:31.901Z,38.90
2017-11-03T07:08:59.333Z,35.37
2017-11-03T07:11:27.626Z,31.20
2017-11-03T07:13:56.405Z,31.93
2017-11-03T07:16:23.853Z,38.63
2017-11-03T07:18:51.317Z,38.53
2017-11-03T07:21:18.764Z,35.33
2017-11-03T07:23:46.190Z,39.53
2017-11-03T07:26:14.756Z,49.23
2017-11-03T07:28:43.289Z,40.50
2017-11-03T07:31:10.725Z,44.27
2017-11-03T07:33:38.201Z,43.83
2017-11-03T07:38:40.828Z,40.00
2017-11-03T07:41:10.096Z,46.77
2017-11-03T07:43:37.561Z,45.03
2017-11-03T07:46:05.393Z,40.93
2017-11-03T07:48:33.606Z,49.70
2017-11-03T07:51:01.881Z,46.93
2017-11-03T07:53:29.305Z,56.63
2017-11-03T07:55:57.090Z,57.10
2017-11-03T07:58:25.273Z,103.13
2017-11-03T08:00:52.729Z,67.13
2017-11-03T08:03:20.173Z,90.77
2017-11-03T08:05:48.001Z,89.40
2017-11-03T08:08:16.195Z,102.60
2017-11-03T08:10:44.501Z,95.27
2017-11-03T08:13:11.938Z,101.83
2017-11-03T08:15:39.773Z,105.80
2017-11-03T08:18:08.308Z,105.67
2017-11-03T08:20:37.108Z,114.87
2017-11-03T08:23:05.373Z,115.07
2017-11-03T08:25:33.576Z,102.33
2017-11-03T08:28:02.359Z,120.63
2017-11-03T08:30:29.912Z,125.10
2017-11-03T08:32:58.377Z,141.70
2017-11-03T08:35:26.653Z,127.37
2017-11-03T08:37:54.531Z,223.23
2017-11-03T08:40:23.006Z,231.23
2017-11-03T08:42:51.276Z,270.33
2017-11-03T08:45:19.851Z,246.70
2017-11-03T08:47:47.625Z,213.90
2017-11-03T08:50:16.424Z,250.93
2017-11-03T08:52:43.861Z,249.73
2017-11-03T08:55:12.689Z,302.50
2017-11-03T08:57:41.627Z,283.70
2017-11-03T09:00:09.117Z,324.83
2017-11-03T09:02:36.873Z,301.33
2017-11-03T09:05:04.341Z,360.53
2017-11-03T09:07:32.541Z,346.47
2017-11-03T09:09:59.997Z,348.70
2017-11-03T09:12:27.837Z,315.20
2017-11-03T09:14:55.277Z,326.60
2017-11-03T09:17:24.502Z,319.03
2017-11-03T09:19:52.040Z,317.20
2017-11-03T09:22:19.460Z,300.67
2017-11-03T09:24:47.373Z,271.10
2017-11-03T09:27:15.215Z,305.33
2017-11-03T09:29:44.001Z,308.23
2017-11-03T09:32:11.474Z,297.00
2017-11-03T09:34:38.912Z,292.33
2017-11-03T09:37:06.401Z,285.90
2017-11-03T09:39:33.853Z,286.03
2017-11-03T09:42:01.305Z,274.40
2017-11-03T09:44:28.769Z,265.43
2017-11-03T09:46:56.325Z,266.33
2017-11-03T09:49:23.765Z,250.10
2017-11-03T09:51:51.200Z,250.70
2017-11-03T09:54:19.104Z,234.20
2017-11-03T09:56:46.546Z,241.83
2017-11-03T09:59:13.977Z,266.80
2017-11-03T10:01:42.197Z,239.67
2017-11-03T10:04:10.073Z,216.87
2017-11-03T10:06:37.929Z,240.43
2017-11-03T10:09:05.381Z,206.53
2017-11-03T10:11:33.590Z,190.83
2017-11-03T10:14:01.785Z,200.80
2017-11-03T10:16:30.005Z,190.60
2017-11-03T10:18:58.294Z,192.90
2017-11-03T10:21:26.161Z,180.27
2017-11-03T10:23:53.617Z,181.27
2017-11-03T10:26:21.448Z,174.40
2017-11-03T10:28:48.936Z,173.23
2017-11-03T10:31:16.781Z,180.97
2017-11-03T10:33:44.217Z,163.33
2017-11-03T10:36:12.425Z,153.17
2017-11-03T10:38:41.685Z,157.30
2017-11-03T10:41:09.121Z,142.43
2017-11-03T10:43:36.611Z,152.67
2017-11-03T10:46:04.161Z,146.53
2017-11-03T10:48:31.598Z,151.63
2017-11-03T10:50:59.453Z,141.10
2017-11-03T10:53:27.353Z,132.73
2017-11-03T10:55:54.785Z,141.43
2017-11-03T10:58:22.224Z,142.00
2017-11-03T11:00:50.437Z,146.77
2017-11-03T11:03:17.922Z,137.77
2017-11-03T11:05:45.360Z,133.00
2017-11-03T11:08:12.820Z,134.03
2017-11-03T11:10:41.018Z,130.40
2017-11-03T11:13:09.961Z,140.97
2017-11-03T11:15:37.418Z,130.80
2017-11-03T11:18:05.713Z,130.10
2017-11-03T11:20:33.924Z,126.57
2017-11-03T11:23:03.185Z,130.63
2017-11-03T11:25:30.645Z,122.47
2017-11-03T11:27:58.478Z,114.73
2017-11-03T11:30:26.325Z,107.10
2017-11-03T11:32:54.529Z,113.77
2017-11-03T11:35:21.965Z,129.30
2017-11-03T11:37:50.493Z,109.30
2017-11-03T11:40:17.956Z,119.37
2017-11-03T11:42:45.390Z,113.27
2017-11-03T11:45:13.170Z,112.70
2017-11-03T11:47:41.738Z,97.27
2017-11-03T11:50:10.314Z,102.47
2017-11-03T11:52:37.793Z,104.70
2017-11-03T11:55:05.229Z,93.60
2017-11-03T11:57:32.705Z,103.77
2017-11-03T12:00:00.546Z,98.63
2017-11-03T12:02:28.000Z,98.93
2017-11-03T12:04:55.829Z,96.03
2017-11-03T12:07:23.365Z,89.20
2017-11-03T12:09:51.562Z,89.47
2017-11-03T12:12:19.809Z,91.57
2017-11-03T12:14:48.081Z,90.50
2017-11-03T12:17:16.664Z,93.73
2017-11-03T12:19:44.097Z,88.60
2017-11-03T12:22:11.937Z,81.83
2017-11-03T12:24:40.144Z,80.93
2017-11-03T12:27:07.572Z,74.93
2017-11-03T12:29:35.785Z,77.17
2017-11-03T12:32:03.605Z,92.73
2017-11-03T12:34:31.841Z,84.13
2017-11-03T12:36:59.293Z,82.63
2017-11-03T12:39:26.765Z,83.87
2017-11-03T12:41:54.953Z,75.27
2017-11-03T12:44:23.504Z,79.40
2017-11-03T12:46:51.787Z,72.30
2017-11-03T12:49:19.614Z,75.50
2017-11-03T12:51:47.932Z,65.30
2017-11-03T12:54:15.762Z,75.40
2017-11-03T12:56:43.585Z,76.40
2017-11-03T12:59:11.317Z,80.63
2017-11-03T13:01:38.781Z,83.43
2017-11-03T13:04:06.238Z,86.57
2017-11-03T13:06:34.389Z,84.53
2017-11-03T13:09:02.213Z,83.60
2017-11-03T13:11:31.171Z,85.23
2017-11-03T13:13:58.629Z,84.87
2017-11-03T13:16:26.462Z,84.53
2017-11-03T13:18:53.944Z,83.53
2017-11-03T13:21:22.446Z,83.83
2017-11-03T13:23:50.297Z,84.07
2017-11-03T13:26:18.493Z,79.20
2017-11-03T13:28:45.948Z,81.27
2017-11-03T13:31:13.439Z,81.93
2017-11-03T13:33:40.872Z,85.50
2017-11-03T13:36:08.350Z,77.67
2017-11-03T13:38:35.781Z,86.87
2017-11-03T13:41:03.218Z,85.57
2017-11-03T13:43:31.438Z,83.53
2017-11-03T13:45:59.637Z,82.60
2017-11-03T13:48:27.073Z,86.23
2017-11-03T13:50:55.553Z,94.60
2017-11-03T13:53:23.418Z,82.97
2017-11-03T13:55:50.854Z,86.97
2017-11-03T13:58:18.537Z,79.30
2017-11-03T14:00:45.977Z,82.20
2017-11-03T14:03:13.458Z,91.03
2017-11-03T14:05:41.293Z,80.97
2017-11-03T14:08:08.728Z,95.80
2017-11-03T14:10:37.049Z,84.90
2017-11-03T14:13:04.896Z,84.00
2017-11-03T14:15:32.368Z,87.00
2017-11-03T14:17:59.785Z,87.53
2017-11-03T14:20:27.625Z,84.23
2017-11-03T14:22:55.250Z,87.53
2017-11-03T14:25:22.661Z,82.93
2017-11-03T14:27:51.200Z,86.50
2017-11-03T14:30:18.653Z,85.93
2017-11-03T14:32:46.105Z,82.97
2017-11-03T14:35:13.953Z,89.77
2017-11-03T14:37:43.177Z,82.03
2017-11-03T14:40:10.622Z,85.77
2017-11-03T14:42:38.701Z,87.63
2017-11-03T14:45:06.533Z,90.53
2017-11-03T14:47:34.737Z,99.17
2017-11-03T14:50:03.029Z,97.97
2017-11-03T14:52:31.223Z,101.37
2017-11-03T14:54:59.473Z,97.20
2017-11-03T14:57:27.689Z,102.27
2017-11-03T14:59:55.885Z,99.10
2017-11-03T15:02:23.721Z,98.70
2017-11-03T15:04:51.449Z,96.43
2017-11-03T15:07:18.889Z,89.17
2017-11-03T15:09:46.780Z,93.10
2017-11-03T15:12:14.236Z,88.80
2017-11-03T15:14:42.833Z,89.93
2017-11-03T15:17:10.275Z,87.90
2017-11-03T15:19:38.753Z,100.33
2017-11-03T15:22:07.034Z,99.50
2017-11-03T15:24:35.607Z,99.90
2017-11-03T15:27:03.061Z,102.47
2017-11-03T15:29:31.353Z,101.43
2017-11-03T15:31:59.182Z,105.40
2017-11-03T15:34:26.891Z,100.03
2017-11-03T15:36:54.322Z,116.50
2017-11-03T15:39:21.780Z,119.53
2017-11-03T15:41:49.558Z,137.40
2017-11-03T15:44:17.823Z,131.13
2017-11-03T15:46:45.657Z,118.93
2017-11-03T15:49:14.181Z,129.27
2017-11-03T15:51:42.457Z,109.30
2017-11-03T15:54:09.906Z,109.07
2017-11-03T15:56:38.092Z,106.13
2017-11-03T15:59:05.557Z,107.03
2017-11-03T16:01:33.381Z,114.43
2017-11-03T16:04:00.821Z,115.85
2017-11-03T16:06:29.028Z,117.77
2017-11-03T16:08:56.505Z,99.80
2017-11-03T16:11:24.780Z,111.23
2017-11-03T16:13:52.686Z,110.40
2017-11-03T16:16:20.924Z,109.13
2017-11-03T16:18:48.378Z,120.03
2017-11-03T16:21:15.818Z,104.83
2017-11-03T16:23:43.257Z,117.47
2017-11-03T16:26:11.102Z,111.53
2017-11-03T16:28:38.933Z,117.37
2017-11-03T16:31:07.200Z,115.90
2017-11-03T16:33:35.473Z,114.13
2017-11-03T16:36:03.761Z,118.20
2017-11-03T16:38:31.596Z,113.07
2017-11-03T16:40:59.276Z,114.40
2017-11-03T16:43:26.745Z,121.90
2017-11-03T16:45:54.220Z,122.93
2017-11-03T16:48:22.080Z,114.70
2017-11-03T16:50:49.926Z,124.87
2017-11-03T16:53:18.517Z,114.50
2017-11-03T16:55:46.277Z,118.53
2017-11-03T16:58:14.144Z,119.80
2017-11-03T17:00:42.427Z,117.40
2017-11-03T17:03:10.675Z,123.27
2017-11-03T17:05:39.288Z,122.20
2017-11-03T17:08:07.141Z,118.67
2017-11-03T17:10:36.054Z,116.63
2017-11-03T17:13:03.905Z,132.30
2017-11-03T17:15:31.741Z,122.17
2017-11-03T17:17:59.955Z,135.27
2017-11-03T17:20:28.852Z,133.30
2017-11-03T17:22:56.396Z,119.73
2017-11-03T17:25:24.241Z,124.80
2017-11-03T17:27:51.678Z,130.70
2017-11-03T17:30:19.115Z,134.43
2017-11-03T17:32:47.213Z,123.70
2017-11-03T17:35:14.646Z,151.13
2017-11-03T17:37:42.533Z,142.63
2017-11-03T17:40:10.706Z,129.40
2017-11-03T17:42:39.279Z,128.73
2017-11-03T17:45:06.712Z,137.93
2017-11-03T17:47:34.421Z,132.07
2017-11-03T17:50:02.625Z,122.77
2017-11-03T17:52:30.061Z,130.80
2017-11-03T17:54:57.946Z,132.27
2017-11-03T17:57:26.892Z,134.47
2017-11-03T17:59:54.362Z,132.20
2017-11-03T18:02:21.922Z,135.70
2017-11-03T18:04:49.381Z,139.63
2017-11-03T18:07:17.745Z,151.57
2017-11-03T18:09:46.175Z,142.70
2017-11-03T18:12:14.949Z,145.73
2017-11-03T18:14:42.785Z,153.33
2017-11-03T18:17:11.267Z,146.30
2017-11-03T18:19:38.728Z,160.63
2017-11-03T18:22:06.924Z,161.97
2017-11-03T18:24:35.886Z,155.73
2017-11-03T18:27:03.321Z,167.00
2017-11-03T18:29:31.908Z,168.87
2017-11-03T18:32:00.952Z,164.53
2017-11-03T18:34:28.810Z,161.60
2017-11-03T18:36:56.641Z,151.93
2017-11-03T18:39:24.325Z,163.67
2017-11-03T18:41:52.601Z,165.20
2017-11-03T18:44:20.038Z,166.60
2017-11-03T18:46:47.709Z,177.07
2017-11-03T18:49:15.902Z,176.80
2017-11-03T18:51:43.344Z,189.90
2017-11-03T18:54:11.113Z,184.63
2017-11-03T18:56:38.569Z,174.27
2017-11-03T18:59:06.769Z,180.00
2017-11-03T19:01:35.211Z,163.00
2017-11-03T19:04:03.777Z,161.00
2017-11-03T19:06:31.265Z,159.60
2017-11-03T19:08:59.564Z,153.87
2017-11-03T19:11:27.813Z,158.63
2017-11-03T19:13:56.401Z,147.10
2017-11-03T19:16:25.510Z,152.77
2017-11-03T19:18:52.944Z,184.63
2017-11-03T19:21:20.400Z,167.67
2017-11-03T19:23:48.836Z,182.63
2017-11-03T19:26:16.662Z,201.20
2017-11-03T19:28:44.095Z,209.67
2017-11-03T19:31:13.256Z,192.13
2017-11-03T19:33:41.835Z,181.87
2017-11-03T19:36:09.661Z,200.67
2017-11-03T19:38:38.149Z,192.10
2017-11-03T19:41:06.009Z,189.07
2017-11-03T19:43:34.213Z,226.93
2017-11-03T19:46:03.486Z,204.00
2017-11-03T19:48:30.943Z,192.40
2017-11-03T19:50:59.725Z,183.13
2017-11-03T19:53:27.573Z,162.17
2017-11-03T19:55:55.758Z,172.93
2017-11-03T19:58:23.230Z,159.20
2017-11-03T20:00:50.992Z,168.17
2017-11-03T20:03:18.421Z,160.07
2017-11-03T20:05:45.856Z,156.70
2017-11-03T20:08:14.383Z,151.40
2017-11-03T20:10:41.847Z,166.53
2017-11-03T20:13:09.261Z,159.03
2017-11-03T20:15:38.217Z,156.50
2017-11-03T20:18:05.676Z,159.23
2017-11-03T20:20:33.925Z,162.53
2017-11-03T20:23:01.678Z,153.87
2017-11-03T20:25:29.105Z,155.70
2017-11-03T20:27:57.311Z,146.20
2017-11-03T20:30:26.100Z,149.57
2017-11-03T20:32:53.537Z,149.97
2017-11-03T20:35:21.025Z,149.93
2017-11-03T20:37:48.785Z,141.13
2017-11-03T20:40:16.621Z,139.67
2017-11-03T20:42:45.405Z,141.67
2017-11-03T20:45:13.100Z,146.77
2017-11-03T20:47:41.389Z,148.33
2017-11-03T20:50:09.961Z,158.60
2017-11-03T20:52:39.066Z,146.50
2017-11-03T20:55:06.518Z,142.70
2017-11-03T20:57:35.102Z,145.40
2017-11-03T21:00:02.558Z,138.17
2017-11-03T21:02:30.429Z,139.97
2017-11-03T21:04:58.265Z,146.47
2017-11-03T21:07:25.751Z,145.67
2017-11-03T21:09:53.181Z,150.23
2017-11-03T21:12:20.613Z,141.00
2017-11-03T21:14:48.454Z,145.20
2017-11-03T21:17:16.399Z,143.07
2017-11-03T21:19:45.333Z,143.87
2017-11-03T21:22:13.421Z,148.87
2017-11-03T21:24:44.079Z,146.03
2017-11-03T21:27:12.677Z,140.53
2017-11-03T21:29:40.850Z,135.83
2017-11-03T21:32:09.832Z,136.40
2017-11-03T21:34:37.245Z,131.57
2017-11-03T21:37:05.325Z,135.67
2017-11-03T21:39:33.913Z,136.87
2017-11-03T21:42:01.737Z,127.53
2017-11-03T21:44:30.198Z,130.03
2017-11-03T21:46:57.702Z,134.57
2017-11-03T21:49:25.884Z,124.87
2017-11-03T21:51:54.418Z,117.27
2017-11-03T21:54:22.989Z,112.73
2017-11-03T21:56:50.417Z,119.07
2017-11-03T21:59:18.741Z,136.63
2017-11-03T22:01:46.947Z,135.63
2017-11-03T22:04:15.741Z,133.17
2017-11-03T22:06:44.482Z,122.47
2017-11-03T22:09:11.942Z,135.90
2017-11-03T22:11:39.764Z,152.67
2017-11-03T22:14:08.208Z,129.80
2017-11-03T22:16:36.041Z,120.37
2017-11-03T22:19:04.335Z,121.93
2017-11-03T22:21:33.282Z,122.87
2017-11-03T22:24:01.534Z,115.57
2017-11-03T22:26:29.777Z,115.33
2017-11-03T22:28:57.532Z,110.20
2017-11-03T22:31:26.319Z,104.13
2017-11-03T22:33:54.605Z,106.53
2017-11-03T22:36:22.173Z,107.77
2017-11-03T22:38:50.365Z,98.00
2017-11-03T22:41:18.619Z,109.67
2017-11-03T22:43:46.788Z,116.03
2017-11-03T22:46:14.656Z,133.67
2017-11-03T22:48:43.440Z,114.20
2017-11-03T22:51:12.549Z,137.90
2017-11-03T22:53:39.993Z,132.03
2017-11-03T22:56:08.185Z,138.10
2017-11-03T22:58:35.937Z,137.13
2017-11-03T23:01:04.137Z,126.27
2017-11-03T23:03:31.969Z,131.37
2017-11-03T23:05:59.738Z,126.90
2017-11-03T23:08:27.198Z,132.80
2017-11-03T23:10:54.631Z,132.30
2017-11-03T23:13:22.313Z,135.60
2017-11-03T23:15:50.141Z,145.03
2017-11-03T23:18:18.362Z,144.43
2017-11-03T23:20:46.832Z,131.20
2017-11-03T23:23:14.713Z,142.20
2017-11-03T23:25:42.917Z,135.87
2017-11-03T23:28:11.154Z,137.17
2017-11-03T23:30:39.352Z,134.03
2017-11-03T23:33:08.342Z,120.60
2017-11-03T23:35:36.025Z,123.40
2017-11-03T23:38:03.857Z,133.90
2017-11-03T23:40:32.069Z,146.97
2017-11-03T23:43:00.602Z,127.13
2017-11-03T23:45:29.169Z,131.60
2017-11-03T23:47:56.608Z,146.73
2017-11-03T23:50:25.128Z,131.53
2017-11-03T23:52:52.961Z,121.47
2017-11-03T23:55:21.207Z,145.37
2017-11-03T23:57:48.617Z,120.70
